Time;durP1;ratioP1;P1;durP2;ratioP2;P2;SDS_P1;SDS_P2;PMS_P1;PMS_P2;Temp;Humidity;BMP_temperature;BMP_pressure;BME280_temperature;BME280_humidity;BME280_pressure;Samples;Min_cycle;Max_cycle;Signal;HPM_P1;HPM_P2
2022/07/15 02:32:29;;;;;;;12.00;11.50;;;16.10;99.90;;;;;;5244522;23;20846;-69
2022/07/15 02:34:56;;;;;;;12.50;11.87;;;15.90;99.90;;;;;;4969585;28;20571;-69
2022/07/15 02:37:22;;;;;;;12.47;11.83;;;15.80;99.90;;;;;;4969267;28;20535;-70
2022/07/15 02:39:49;;;;;;;11.93;11.33;;;15.80;99.90;;;;;;4969654;28;20478;-72
2022/07/15 02:42:16;;;;;;;12.13;11.53;;;15.70;99.90;;;;;;4969796;28;20447;-71
2022/07/15 02:44:42;;;;;;;11.13;10.60;;;15.70;99.90;;;;;;4969669;28;20451;-72
2022/07/15 02:47:09;;;;;;;11.90;11.13;;;15.70;99.90;;;;;;4969848;28;20855;-72
2022/07/15 02:49:37;;;;;;;12.13;11.53;;;15.70;99.90;;;;;;4969487;28;21060;-72
2022/07/15 02:52:05;;;;;;;11.63;10.90;;;15.70;99.90;;;;;;4970841;28;20451;-71
2022/07/15 02:54:31;;;;;;;12.83;12.13;;;15.60;99.90;;;;;;4973506;28;20491;-71
2022/07/15 02:56:58;;;;;;;12.63;11.93;;;15.50;99.90;;;;;;4970478;28;20458;-71
2022/07/15 02:59:25;;;;;;;12.43;11.47;;;15.50;99.90;;;;;;4973580;28;20503;-71
2022/07/15 03:01:51;;;;;;;11.87;10.93;;;15.50;99.90;;;;;;4973801;28;20898;-71
2022/07/15 03:04:18;;;;;;;12.43;11.77;;;15.50;99.90;;;;;;4969962;28;20470;-71
2022/07/15 03:06:46;;;;;;;12.43;11.53;;;15.40;99.90;;;;;;4973899;28;21000;-70
2022/07/15 03:09:13;;;;;;;12.20;11.70;;;15.20;99.90;;;;;;4973700;28;20494;-71
2022/07/15 03:11:39;;;;;;;12.20;11.50;;;15.20;99.90;;;;;;4973446;28;20491;-71
2022/07/15 03:14:06;;;;;;;12.40;11.80;;;15.20;99.90;;;;;;4973657;28;20502;-71
2022/07/15 03:16:33;;;;;;;13.40;12.30;;;15.10;99.90;;;;;;4973462;28;20456;-71
2022/07/15 03:19:00;;;;;;;12.23;11.53;;;15.10;99.90;;;;;;4973570;28;20471;-71
2022/07/15 03:21:27;;;;;;;12.37;11.77;;;15.10;99.90;;;;;;4973424;28;20450;-72
2022/07/15 03:23:55;;;;;;;13.57;12.97;;;15.20;99.90;;;;;;4973427;28;20452;-72
2022/07/15 03:26:22;;;;;;;13.43;12.43;;;15.30;99.90;;;;;;4973315;28;20452;-71
2022/07/15 03:28:49;;;;;;;13.53;12.60;;;15.20;99.90;;;;;;4973613;28;20458;-71
2022/07/15 03:31:15;;;;;;;13.23;12.40;;;15.10;99.90;;;;;;4964927;28;20543;-72
2022/07/15 03:33:43;;;;;;;13.50;12.70;;;15.10;99.90;;;;;;4954022;29;20846;-70
2022/07/15 03:36:09;;;;;;;14.07;13.10;;;15.00;99.90;;;;;;4953705;29;20453;-71
2022/07/15 03:38:36;;;;;;;12.30;11.80;;;15.00;99.90;;;;;;4954830;29;20456;-71
2022/07/15 03:41:04;;;;;;;12.77;12.20;;;15.00;99.90;;;;;;4955127;29;20519;-71
2022/07/15 03:43:31;;;;;;;12.67;11.93;;;15.00;99.90;;;;;;4955166;29;20455;-71
2022/07/15 03:45:57;;;;;;;11.80;11.13;;;15.00;99.90;;;;;;4955236;29;20464;-71
2022/07/15 03:48:24;;;;;;;12.00;11.50;;;15.10;99.90;;;;;;4954717;29;20456;-71
2022/07/15 03:50:51;;;;;;;12.20;11.40;;;15.10;99.90;;;;;;4955054;29;20463;-70
2022/07/15 03:53:17;;;;;;;12.60;11.70;;;15.10;99.90;;;;;;4954970;29;20831;-71
2022/07/15 03:55:44;;;;;;;11.60;11.10;;;15.00;99.90;;;;;;4955056;29;20456;-71
2022/07/15 03:58:12;;;;;;;12.27;11.40;;;15.00;99.90;;;;;;4954642;29;20954;-71
2022/07/15 04:00:39;;;;;;;12.83;11.80;;;15.00;99.90;;;;;;4954303;29;20456;-71
2022/07/15 04:03:05;;;;;;;13.87;12.97;;;15.10;99.90;;;;;;4953551;28;20997;-71
2022/07/15 04:05:32;;;;;;;13.13;12.43;;;15.20;99.90;;;;;;4948238;29;20809;-71
2022/07/15 04:07:59;;;;;;;13.30;12.50;;;15.20;99.90;;;;;;4939160;29;20824;-71
2022/07/15 04:10:25;;;;;;;13.67;12.97;;;15.20;99.90;;;;;;4935444;29;20457;-71
2022/07/15 04:12:52;;;;;;;13.80;12.93;;;15.40;99.90;;;;;;4935261;29;20454;-72
2022/07/15 04:15:20;;;;;;;12.27;11.70;;;15.40;99.90;;;;;;4935425;29;20858;-72
2022/07/15 04:17:47;;;;;;;12.00;11.43;;;15.50;99.90;;;;;;4935293;29;20460;-72
2022/07/15 04:20:13;;;;;;;12.17;11.30;;;15.50;99.90;;;;;;4935479;29;20461;-72
2022/07/15 04:22:40;;;;;;;14.70;13.60;;;15.50;99.90;;;;;;4935760;29;20822;-72
2022/07/15 04:25:09;;;;;;;13.00;12.40;;;15.60;99.90;;;;;;4935210;29;20869;-72
2022/07/15 04:27:35;;;;;;;13.53;12.83;;;15.70;99.90;;;;;;4935026;29;20636;-72
2022/07/15 04:30:02;;;;;;;12.97;12.23;;;15.80;99.90;;;;;;4935049;29;20481;-72
2022/07/15 04:32:30;;;;;;;12.53;11.90;;;15.90;99.90;;;;;;4935192;29;20497;-72
2022/07/15 04:34:57;;;;;;;13.40;12.70;;;16.00;99.90;;;;;;4935042;29;20493;-71
2022/07/15 04:37:23;;;;;;;12.70;11.90;;;16.20;99.90;;;;;;4934728;29;20450;-72
2022/07/15 04:39:50;;;;;;;13.07;12.00;;;16.60;99.90;;;;;;4934757;29;20453;-72
2022/07/15 04:42:17;;;;;;;13.30;12.60;;;17.30;99.90;;;;;;4934531;29;20457;-72
2022/07/15 04:44:43;;;;;;;12.10;11.50;;;18.00;99.90;;;;;;4935103;29;20855;-72
2022/07/15 04:47:10;;;;;;;12.97;12.17;;;18.60;99.90;;;;;;4934762;29;20480;-71
2022/07/15 04:52:19;;;;;;;14.00;13.10;;;19.30;99.10;;;;;;4902474;29;20481;-72
2022/07/15 04:54:45;;;;;;;12.50;11.83;;;19.70;98.20;;;;;;4934631;29;20903;-72
2022/07/15 04:57:12;;;;;;;13.07;12.13;;;20.10;96.90;;;;;;4934507;29;20959;-72
2022/07/15 04:59:39;;;;;;;13.90;13.00;;;20.50;95.80;;;;;;4934643;29;20453;-72
2022/07/15 05:02:06;;;;;;;13.40;12.80;;;20.90;94.70;;;;;;4934472;29;20462;-71
2022/07/15 05:04:32;;;;;;;13.63;12.43;;;21.30;93.80;;;;;;4934621;29;20884;-72
2022/07/15 05:07:00;;;;;;;14.00;13.20;;;21.70;93.10;;;;;;4943868;29;20480;-72
2022/07/15 05:09:27;;;;;;;14.40;13.60;;;22.10;92.00;;;;;;4934889;29;20458;-72
2022/07/15 05:11:54;;;;;;;14.53;13.83;;;22.40;91.40;;;;;;4934243;29;20464;-72
2022/07/15 05:14:20;;;;;;;13.17;12.53;;;22.70;90.70;;;;;;4933835;29;20489;-72
2022/07/15 05:16:47;;;;;;;15.37;14.50;;;22.90;90.80;;;;;;4934138;29;20461;-73
2022/07/15 05:19:14;;;;;;;13.50;12.90;;;23.10;90.30;;;;;;4934452;29;20461;-73
2022/07/15 05:21:41;;;;;;;13.97;13.17;;;23.20;89.10;;;;;;4934012;29;20838;-72
2022/07/15 05:24:09;;;;;;;12.30;11.60;;;23.60;87.00;;;;;;4934044;29;20456;-73
2022/07/15 05:26:35;;;;;;;14.40;13.70;;;24.00;84.70;;;;;;4939365;29;20766;-73
2022/07/15 05:29:02;;;;;;;14.03;13.07;;;24.00;84.30;;;;;;4945427;29;20456;-73
2022/07/15 05:31:28;;;;;;;14.77;13.87;;;24.30;82.70;;;;;;4945051;29;20488;-73
2022/07/15 05:33:55;;;;;;;14.23;13.53;;;24.50;81.80;;;;;;4953138;29;20467;-73
2022/07/15 05:36:22;;;;;;;13.00;12.20;;;24.60;81.60;;;;;;4971854;28;20459;-73
2022/07/15 05:38:49;;;;;;;14.70;13.70;;;24.60;81.00;;;;;;4972393;28;20452;-73
2022/07/15 05:41:16;;;;;;;14.57;13.67;;;24.50;80.80;;;;;;4972413;28;20559;-73
2022/07/15 05:43:43;;;;;;;14.57;13.37;;;24.90;81.10;;;;;;4962829;28;20469;-72
2022/07/15 05:46:10;;;;;;;14.10;13.30;;;25.20;77.30;;;;;;4953019;29;20459;-72
2022/07/15 05:48:37;;;;;;;14.53;13.73;;;25.30;75.40;;;;;;4952851;29;20464;-71
2022/07/15 05:51:04;;;;;;;13.87;13.17;;;25.00;74.20;;;;;;4952539;28;20472;-72
2022/07/15 05:53:31;;;;;;;14.13;13.53;;;25.10;74.30;;;;;;4953041;29;20460;-72
2022/07/15 05:55:58;;;;;;;13.97;13.17;;;25.30;74.40;;;;;;4953080;29;20534;-72
2022/07/15 05:58:26;;;;;;;15.30;14.40;;;25.40;74.80;;;;;;4952839;28;20472;-73
2022/07/15 06:00:54;;;;;;;14.73;13.43;;;25.50;74.60;;;;;;4960792;28;20447;-73
2022/07/15 06:03:20;;;;;;;13.67;12.87;;;25.70;74.10;;;;;;4971593;28;20452;-73
2022/07/15 06:05:47;;;;;;;14.40;13.63;;;25.70;72.50;;;;;;4969880;28;20459;-72
2022/07/15 06:08:14;;;;;;;13.50;12.70;;;26.00;71.40;;;;;;4971992;28;20452;-73
2022/07/15 06:10:42;;;;;;;14.07;13.27;;;26.00;70.00;;;;;;4971243;28;20969;-73
2022/07/15 06:13:09;;;;;;;13.97;13.27;;;26.20;70.30;;;;;;4971317;28;20451;-73
2022/07/15 06:15:37;;;;;;;15.73;14.83;;;26.20;69.80;;;;;;4971277;28;20534;-73
2022/07/15 06:18:04;;;;;;;14.47;13.77;;;26.20;70.10;;;;;;4971494;28;20455;-73
2022/07/15 06:20:32;;;;;;;13.70;12.80;;;26.40;69.60;;;;;;4971423;28;20510;-73
2022/07/15 06:22:59;;;;;;;14.67;13.90;;;26.70;66.90;;;;;;4971531;28;20482;-73
2022/07/15 06:25:26;;;;;;;13.53;13.03;;;26.90;67.00;;;;;;4971323;28;20448;-73
2022/07/15 06:27:53;;;;;;;13.70;13.00;;;27.10;65.40;;;;;;4974038;28;20881;-73
2022/07/15 06:30:19;;;;;;;15.00;14.10;;;27.40;64.50;;;;;;4975178;28;20490;-73
2022/07/15 06:32:47;;;;;;;13.20;12.60;;;27.80;63.40;;;;;;4975235;28;20989;-73
2022/07/15 06:35:14;;;;;;;13.77;12.97;;;27.50;63.60;;;;;;4975122;28;20487;-74
2022/07/15 06:37:41;;;;;;;14.10;13.20;;;27.70;61.50;;;;;;4975008;28;20530;-73
2022/07/15 06:40:09;;;;;;;13.03;12.43;;;27.90;61.20;;;;;;4974873;28;20757;-73
2022/07/15 06:42:37;;;;;;;13.53;12.90;;;28.20;59.90;;;;;;4975169;28;20870;-74
2022/07/15 06:45:05;;;;;;;13.37;12.57;;;28.50;59.00;;;;;;4975032;28;20882;-74
2022/07/15 06:47:32;;;;;;;13.97;13.27;;;28.80;58.10;;;;;;4975174;28;20463;-73
2022/07/15 06:50:01;;;;;;;13.80;12.93;;;28.50;56.50;;;;;;4975421;28;20458;-74
2022/07/15 06:52:28;;;;;;;13.60;12.90;;;28.70;56.60;;;;;;4975430;28;20985;-74
2022/07/15 06:54:55;;;;;;;14.20;13.30;;;29.20;55.50;;;;;;4974701;28;20499;-74
2022/07/15 06:57:21;;;;;;;13.10;12.30;;;29.20;55.70;;;;;;4974418;28;20486;-74
2022/07/15 06:59:48;;;;;;;13.27;12.70;;;30.00;54.00;;;;;;4974787;28;20459;-73
2022/07/15 07:02:15;;;;;;;13.67;13.07;;;30.30;52.60;;;;;;4974911;28;20462;-73
2022/07/15 07:04:42;;;;;;;13.87;13.10;;;30.60;51.30;;;;;;4971210;28;20506;-74
2022/07/15 07:07:10;;;;;;;13.73;13.13;;;30.90;50.30;;;;;;4971534;28;20467;-71
2022/07/15 07:09:36;;;;;;;15.20;13.87;;;30.70;50.40;;;;;;4971726;28;20448;-73
2022/07/15 07:12:04;;;;;;;14.13;13.43;;;31.10;49.60;;;;;;4968775;28;20479;-72
2022/07/15 07:14:30;;;;;;;15.50;14.70;;;31.40;49.40;;;;;;4966468;28;20448;-72
2022/07/15 07:16:57;;;;;;;14.20;13.40;;;30.90;48.80;;;;;;4955857;29;20804;-72
2022/07/15 07:19:24;;;;;;;15.43;14.27;;;31.00;48.70;;;;;;4955708;29;20449;-72
2022/07/15 07:21:50;;;;;;;14.50;13.83;;;31.40;48.60;;;;;;4954435;28;20464;-72
2022/07/15 07:24:18;;;;;;;15.50;14.40;;;31.30;49.20;;;;;;4971932;28;20451;-72
2022/07/15 07:26:45;;;;;;;14.37;13.87;;;31.60;47.10;;;;;;4974748;28;20443;-73
2022/07/15 07:29:14;;;;;;;14.40;13.70;;;31.20;47.40;;;;;;4974733;28;20443;-73
2022/07/15 07:31:41;;;;;;;14.27;13.50;;;31.30;47.90;;;;;;4974386;28;20482;-73
2022/07/15 07:34:07;;;;;;;13.83;13.20;;;31.50;47.20;;;;;;4974391;28;20474;-73
2022/07/15 07:36:34;;;;;;;14.07;13.43;;;31.50;45.90;;;;;;4974706;28;20491;-73
2022/07/15 07:39:01;;;;;;;13.10;12.60;;;31.00;45.50;;;;;;4974287;28;20558;-73
2022/07/15 07:41:29;;;;;;;14.43;13.50;;;31.00;45.50;;;;;;4974549;28;20949;-73
2022/07/15 07:43:56;;;;;;;14.43;13.53;;;30.80;44.90;;;;;;4974575;28;20668;-73
2022/07/15 07:46:23;;;;;;;14.30;13.70;;;30.80;45.50;;;;;;4974207;28;20451;-73
2022/07/15 07:48:49;;;;;;;13.87;13.27;;;30.00;45.90;;;;;;4974481;28;20936;-73
2022/07/15 07:51:18;;;;;;;13.63;13.03;;;29.50;44.90;;;;;;4974464;28;20830;-73
2022/07/15 07:53:46;;;;;;;13.37;12.87;;;29.10;44.80;;;;;;4974324;28;20813;-73
2022/07/15 07:56:13;;;;;;;13.37;12.87;;;29.30;45.80;;;;;;4974272;28;20495;-73
2022/07/15 07:58:41;;;;;;;13.30;12.67;;;28.90;45.30;;;;;;4973918;28;20494;-73
2022/07/15 08:01:08;;;;;;;13.63;12.97;;;28.90;46.50;;;;;;4974096;28;21048;-72
2022/07/15 08:03:35;;;;;;;13.47;12.87;;;29.00;46.30;;;;;;4973939;28;20556;-73
2022/07/15 08:06:02;;;;;;;13.30;12.73;;;28.70;45.10;;;;;;4973998;28;20455;-73
2022/07/15 08:08:28;;;;;;;13.13;12.53;;;28.90;44.70;;;;;;4974061;28;20463;-73
2022/07/15 08:10:57;;;;;;;14.13;13.23;;;29.50;44.70;;;;;;4972336;28;20443;-74
2022/07/15 08:13:25;;;;;;;13.53;12.87;;;30.10;44.00;;;;;;4973794;28;20828;-74
2022/07/15 08:15:56;;;;;;;13.67;13.17;;;29.60;44.00;;;;;;4973596;28;20491;-73
2022/07/15 08:18:23;;;;;;;13.27;12.77;;;29.30;44.30;;;;;;4973700;28;20514;-74
2022/07/15 08:20:51;;;;;;;13.47;12.90;;;29.30;43.80;;;;;;4973549;28;20452;-74
2022/07/15 08:23:20;;;;;;;14.10;13.37;;;29.40;43.00;;;;;;4973658;28;20455;-74
2022/07/15 08:25:48;;;;;;;14.03;13.53;;;29.80;42.30;;;;;;4973440;28;20452;-74
2022/07/15 08:28:17;;;;;;;13.90;13.40;;;30.10;41.80;;;;;;4973686;28;20828;-74
2022/07/15 08:30:45;;;;;;;14.33;13.73;;;30.40;42.20;;;;;;4973498;28;20528;-74
2022/07/15 08:33:13;;;;;;;14.50;13.70;;;31.30;41.60;;;;;;4973512;28;20455;-75
2022/07/15 08:35:41;;;;;;;14.37;13.67;;;32.10;40.10;;;;;;4973173;28;20487;-75
2022/07/15 08:38:09;;;;;;;15.03;14.43;;;32.30;39.70;;;;;;4973327;28;20448;-74
2022/07/15 08:40:36;;;;;;;14.73;13.83;;;32.60;39.30;;;;;;4973425;28;20447;-75
2022/07/15 08:43:03;;;;;;;14.20;13.60;;;32.90;38.30;;;;;;4973303;28;20452;-75
2022/07/15 08:45:30;;;;;;;13.80;13.30;;;32.70;38.00;;;;;;4973423;28;20452;-74
2022/07/15 08:47:59;;;;;;;13.93;13.33;;;32.30;38.10;;;;;;4973446;28;20444;-74
2022/07/15 11:14:45;;;;;;;15.63;14.93;;;33.90;35.90;;;;;;5844897;23;20476;-74
2022/07/15 11:17:13;;;;;;;15.83;14.87;;;34.10;36.10;;;;;;4999533;28;20481;-75
2022/07/15 11:19:40;;;;;;;15.83;14.73;;;33.80;36.10;;;;;;5013002;28;20461;-75
2022/07/15 11:22:09;;;;;;;15.50;14.50;;;33.10;36.70;;;;;;4999268;28;20812;-75
2022/07/15 11:24:36;;;;;;;14.57;13.93;;;33.10;36.80;;;;;;4993451;28;20565;-74
2022/07/15 11:27:03;;;;;;;15.10;14.40;;;32.90;36.50;;;;;;4993471;28;20454;-74
2022/07/15 11:29:47;;;;;;;16.10;15.37;;;34.10;36.30;;;;;;4988310;28;20470;-75
2022/07/15 11:32:15;;;;;;;15.60;14.90;;;35.40;34.30;;;;;;4973549;28;20456;-75
2022/07/15 11:34:44;;;;;;;16.50;15.40;;;34.80;34.40;;;;;;4973764;28;20832;-75
2022/07/15 11:37:12;;;;;;;15.60;14.97;;;34.70;34.50;;;;;;4973547;28;20944;-76
2022/07/15 11:39:39;;;;;;;15.20;14.50;;;33.20;36.10;;;;;;4973543;28;20514;-75
2022/07/15 11:44:52;;;;;;;17.20;16.10;;;33.10;36.90;;;;;;4973785;28;20793;-75
2022/07/15 11:47:19;;;;;;;15.70;15.10;;;32.40;37.30;;;;;;4984191;28;20534;-76
2022/07/15 11:49:46;;;;;;;15.93;14.90;;;31.90;37.90;;;;;;4992780;28;21015;-76
2022/07/15 11:52:22;;;;;;;14.63;13.93;;;31.50;38.10;;;;;;4992513;28;20740;-75
2022/07/15 11:54:49;;;;;;;14.90;14.30;;;31.50;39.30;;;;;;4993130;28;20552;-73
2022/07/15 11:57:16;;;;;;;14.33;13.50;;;31.40;38.30;;;;;;4992939;28;20498;-75
2022/07/15 11:59:54;;;;;;;14.80;14.00;;;31.00;39.10;;;;;;4992768;28;20459;-75
2022/07/15 12:02:24;;;;;;;14.27;13.47;;;31.30;39.60;;;;;;4992981;28;20454;-75
2022/07/15 12:04:51;;;;;;;14.20;13.60;;;31.30;39.20;;;;;;4992803;28;20459;-73
2022/07/15 12:07:18;;;;;;;15.77;14.87;;;31.50;39.50;;;;;;4992607;28;20450;-74
2022/07/15 12:09:46;;;;;;;15.53;14.70;;;31.90;38.80;;;;;;4992575;28;20463;-73
2022/07/15 12:12:13;;;;;;;15.63;14.70;;;31.80;38.80;;;;;;4992800;28;20454;-75
2022/07/15 12:14:41;;;;;;;15.60;14.67;;;31.80;39.20;;;;;;4992141;28;20486;-74
2022/07/15 12:17:10;;;;;;;14.03;13.40;;;31.30;39.30;;;;;;4992475;28;20541;-74
2022/07/15 12:19:37;;;;;;;14.90;14.20;;;30.50;40.70;;;;;;4992730;28;20471;-73
2022/07/15 12:22:07;;;;;;;15.13;14.23;;;29.70;42.10;;;;;;4992549;28;20949;-74
2022/07/15 12:24:40;;;;;;;15.10;14.50;;;29.40;42.40;;;;;;4991568;28;20470;-74
2022/07/15 12:27:08;;;;;;;15.43;14.83;;;29.70;42.70;;;;;;4992623;28;20450;-74
2022/07/15 12:29:36;;;;;;;15.23;14.40;;;30.50;41.50;;;;;;4992429;28;20454;-74
2022/07/15 12:32:04;;;;;;;16.00;15.20;;;30.80;40.90;;;;;;4992490;28;20450;-74
2022/07/15 12:34:52;;;;;;;16.20;15.27;;;30.50;41.40;;;;;;4991996;28;20458;-74
2022/07/15 12:37:21;;;;;;;15.37;14.37;;;30.80;42.00;;;;;;4992455;28;20486;-74
2022/07/15 12:40:02;;;;;;;14.80;14.03;;;31.50;40.60;;;;;;4992079;28;20457;-74
2022/07/15 12:42:31;;;;;;;13.93;13.23;;;31.00;40.50;;;;;;4991876;28;20867;-74
2022/07/15 12:45:10;;;;;;;14.90;14.20;;;30.00;41.60;;;;;;4991680;28;20450;-73
2022/07/15 12:47:38;;;;;;;13.80;13.17;;;29.10;42.70;;;;;;4992131;28;20529;-73
2022/07/15 12:50:07;;;;;;;15.23;14.10;;;28.80;43.60;;;;;;4992020;28;20902;-73
2022/07/15 12:52:36;;;;;;;14.50;13.80;;;29.10;44.50;;;;;;4991823;28;20457;-73
2022/07/15 12:55:14;;;;;;;15.17;13.83;;;29.70;43.00;;;;;;4991873;28;20898;-74
2022/07/15 12:57:42;;;;;;;15.43;14.33;;;29.70;42.20;;;;;;4991825;28;20486;-74
2022/07/15 13:00:13;;;;;;;14.33;13.60;;;29.40;43.00;;;;;;4991687;28;20455;-74
2022/07/15 13:03:00;;;;;;;14.37;13.77;;;29.20;43.60;;;;;;4991622;28;20446;-74
2022/07/15 13:05:30;;;;;;;14.20;13.60;;;28.80;44.60;;;;;;4991458;28;20666;-74
2022/07/15 13:07:57;;;;;;;15.17;14.40;;;28.60;44.40;;;;;;4991794;28;20451;-73
2022/07/15 13:10:24;;;;;;;14.57;13.70;;;28.70;44.60;;;;;;4991715;28;20458;-73
2022/07/15 13:12:51;;;;;;;14.53;13.73;;;28.50;44.60;;;;;;4991499;28;20455;-75
2022/07/15 13:15:17;;;;;;;14.50;13.70;;;28.30;44.90;;;;;;4991184;28;20482;-75
2022/07/15 13:17:44;;;;;;;15.17;14.20;;;28.00;45.20;;;;;;4991140;28;20486;-74
2022/07/15 13:20:12;;;;;;;15.50;14.50;;;27.90;46.10;;;;;;4991581;28;20474;-76
2022/07/15 13:22:41;;;;;;;14.63;13.93;;;29.00;44.80;;;;;;5011010;28;20922;-75
2022/07/15 13:25:08;;;;;;;14.20;13.20;;;30.50;43.10;;;;;;5011121;28;20453;-75
2022/07/15 13:27:35;;;;;;;14.60;13.90;;;31.60;40.90;;;;;;5010982;28;20490;-75
2022/07/15 13:30:02;;;;;;;13.80;13.20;;;31.20;40.80;;;;;;5010637;28;20464;-75
2022/07/15 13:32:29;;;;;;;14.70;13.80;;;31.00;41.40;;;;;;5010440;28;20453;-75
2022/07/15 13:34:55;;;;;;;15.43;14.50;;;31.50;40.90;;;;;;5010714;28;20458;-75
2022/07/15 13:37:22;;;;;;;15.40;14.70;;;31.30;40.90;;;;;;5010430;28;20501;-75
2022/07/15 13:39:50;;;;;;;14.40;13.80;;;31.30;40.90;;;;;;5010755;28;20468;-74
2022/07/15 13:42:17;;;;;;;14.30;13.77;;;31.30;41.50;;;;;;5010346;28;20461;-74
2022/07/15 13:44:44;;;;;;;14.07;13.47;;;31.10;41.10;;;;;;5010191;28;20994;-74
2022/07/15 13:47:11;;;;;;;15.30;14.40;;;30.60;42.00;;;;;;5009895;28;20450;-74
2022/07/15 13:52:22;;;;;;;14.00;13.10;;;30.90;41.80;;;;;;5010551;28;21038;-74
2022/07/15 13:54:50;;;;;;;14.87;14.17;;;30.80;41.30;;;;;;5010462;28;20469;-74
2022/07/15 13:57:17;;;;;;;15.10;14.50;;;31.40;41.60;;;;;;5010233;28;21027;-74
2022/07/15 13:59:43;;;;;;;15.27;14.40;;;32.00;39.90;;;;;;5009880;28;20457;-75
2022/07/15 14:02:10;;;;;;;15.53;14.73;;;32.80;39.70;;;;;;5010067;28;20453;-74
2022/07/15 14:04:37;;;;;;;15.47;14.60;;;33.60;38.60;;;;;;5010211;28;20827;-75
2022/07/15 14:07:03;;;;;;;15.13;14.53;;;34.40;37.80;;;;;;5010309;28;20465;-74
2022/07/15 14:09:30;;;;;;;16.03;15.20;;;35.00;36.50;;;;;;5010409;28;20465;-74
2022/07/15 14:11:58;;;;;;;15.03;14.23;;;34.50;36.40;;;;;;5010098;28;20450;-74
2022/07/15 14:14:25;;;;;;;14.30;13.73;;;33.90;37.30;;;;;;5008290;28;20469;-74
2022/07/15 14:16:53;;;;;;;15.00;14.40;;;33.30;38.30;;;;;;4990729;28;20510;-75
2022/07/15 14:19:19;;;;;;;14.67;13.87;;;33.90;37.60;;;;;;4990579;28;20462;-75
2022/07/15 14:21:46;;;;;;;15.10;14.47;;;33.80;37.60;;;;;;4976862;28;20969;-74
2022/07/15 14:24:13;;;;;;;14.80;14.20;;;32.90;37.60;;;;;;4970628;28;20551;-75
2022/07/15 14:26:40;;;;;;;15.70;14.80;;;31.90;39.40;;;;;;4970827;28;20451;-73
2022/07/15 14:29:09;;;;;;;14.53;13.83;;;31.10;40.00;;;;;;4970845;28;20478;-74
2022/07/15 14:31:36;;;;;;;14.10;13.30;;;30.50;41.30;;;;;;4971119;28;21130;-75
2022/07/15 14:34:03;;;;;;;14.10;13.50;;;30.10;41.90;;;;;;4970821;28;20866;-74
2022/07/15 14:36:29;;;;;;;14.20;13.70;;;30.20;42.40;;;;;;4970673;28;20488;-74
2022/07/15 14:38:56;;;;;;;13.97;13.37;;;30.50;42.00;;;;;;4970606;28;20805;-74
2022/07/15 14:41:23;;;;;;;14.53;13.83;;;30.90;41.60;;;;;;4970840;28;20450;-74
2022/07/15 14:43:50;;;;;;;14.83;13.93;;;30.60;41.90;;;;;;4970801;28;20452;-73
2022/07/15 14:46:18;;;;;;;14.80;14.03;;;30.80;41.70;;;;;;4970411;28;20447;-73
2022/07/15 14:48:45;;;;;;;14.23;13.63;;;30.50;41.80;;;;;;4972929;28;20828;-74
2022/07/15 14:51:12;;;;;;;13.73;13.17;;;29.90;42.40;;;;;;4974316;28;20459;-73
2022/07/15 14:53:39;;;;;;;13.70;13.03;;;29.60;42.90;;;;;;4966658;28;20460;-72
2022/07/15 14:56:06;;;;;;;14.47;13.77;;;28.90;43.80;;;;;;4974724;28;20460;-73
2022/07/15 14:58:32;;;;;;;14.23;13.37;;;28.50;44.40;;;;;;4974435;28;20836;-73
2022/07/15 15:00:59;;;;;;;13.83;13.33;;;28.70;44.80;;;;;;4974379;28;20459;-74
2022/07/15 15:03:27;;;;;;;13.30;12.70;;;28.50;44.50;;;;;;4974011;28;20833;-73
2022/07/15 15:05:54;;;;;;;13.73;12.83;;;28.00;44.70;;;;;;4974024;28;20443;-73
2022/07/15 15:08:21;;;;;;;14.93;14.23;;;27.70;45.50;;;;;;4974213;28;20447;-73
2022/07/15 15:10:51;;;;;;;15.50;14.47;;;27.70;46.00;;;;;;4974382;28;20466;-72
2022/07/15 15:13:18;;;;;;;12.90;12.40;;;27.20;46.20;;;;;;4971730;28;20468;-72
2022/07/15 15:15:44;;;;;;;13.60;12.73;;;27.00;47.00;;;;;;4985391;28;20482;-73
2022/07/15 15:18:11;;;;;;;13.77;12.93;;;26.80;47.20;;;;;;4993229;28;20503;-71
2022/07/15 15:20:39;;;;;;;13.20;12.60;;;26.50;47.40;;;;;;4997229;28;20464;-72
2022/07/15 15:23:06;;;;;;;13.67;12.90;;;26.50;48.10;;;;;;5013211;28;20458;-73
2022/07/15 15:28:17;;;;;;;14.40;13.70;;;26.70;48.00;;;;;;5012900;28;20421;-73
2022/07/15 15:30:43;;;;;;;12.60;12.00;;;26.40;48.70;;;;;;5012669;28;20456;-72
2022/07/15 15:33:10;;;;;;;13.47;12.67;;;26.30;48.30;;;;;;5012469;28;20570;-72
2022/07/15 15:35:38;;;;;;;13.00;12.30;;;26.20;48.40;;;;;;5012718;28;20458;-72
2022/07/15 15:38:05;;;;;;;14.07;13.37;;;26.10;48.80;;;;;;5012761;28;20497;-73
2022/07/15 15:40:31;;;;;;;14.57;13.70;;;26.20;48.50;;;;;;5012593;28;20454;-71
2022/07/15 15:42:58;;;;;;;14.00;13.37;;;26.30;48.80;;;;;;5012579;28;20458;-71
2022/07/15 15:45:25;;;;;;;15.47;14.73;;;26.40;48.50;;;;;;5012480;28;20454;-73
2022/07/15 15:47:52;;;;;;;14.50;13.80;;;26.30;48.40;;;;;;5012640;28;20452;-73
2022/07/15 15:50:18;;;;;;;12.40;11.80;;;26.30;48.40;;;;;;5012683;28;20477;-72
2022/07/15 15:52:47;;;;;;;12.93;12.27;;;26.20;48.50;;;;;;5012391;28;20790;-72
2022/07/15 15:55:13;;;;;;;14.50;13.77;;;26.30;48.50;;;;;;5012237;28;20458;-73
2022/07/15 15:57:40;;;;;;;13.63;13.03;;;26.30;48.20;;;;;;5012165;28;20493;-73
2022/07/15 16:00:08;;;;;;;15.67;14.63;;;26.20;48.40;;;;;;5012304;28;20460;-73
2022/07/15 16:02:35;;;;;;;13.03;12.33;;;26.10;48.10;;;;;;5012504;28;20446;-73
2022/07/15 16:05:03;;;;;;;14.53;13.93;;;26.10;48.40;;;;;;5012363;28;20457;-73
2022/07/15 16:07:30;;;;;;;13.10;12.60;;;26.10;48.50;;;;;;5012434;28;20553;-72
2022/07/15 16:09:58;;;;;;;11.83;11.20;;;26.00;48.50;;;;;;5011930;28;21014;-72
2022/07/15 16:12:25;;;;;;;12.10;11.60;;;26.10;48.10;;;;;;5011924;28;20449;-72
2022/07/15 16:14:51;;;;;;;12.70;12.10;;;26.00;48.90;;;;;;5006962;28;20489;-72
2022/07/15 16:17:18;;;;;;;13.20;12.60;;;26.00;48.70;;;;;;4992467;28;20486;-72
2022/07/15 16:19:45;;;;;;;14.00;13.40;;;26.10;48.10;;;;;;4992146;28;20454;-72
2022/07/15 16:24:57;;;;;;;14.10;13.20;;;26.00;48.30;;;;;;4972821;28;20431;-73
2022/07/15 16:27:24;;;;;;;13.57;12.97;;;25.90;48.40;;;;;;4972569;28;20451;-73
2022/07/15 16:29:51;;;;;;;14.07;13.37;;;25.80;48.20;;;;;;4973021;28;20959;-72
2022/07/15 16:32:18;;;;;;;13.00;12.30;;;25.80;48.10;;;;;;4972774;28;20459;-72
2022/07/15 16:34:45;;;;;;;13.80;13.00;;;25.70;48.40;;;;;;4972579;28;20828;-73
2022/07/15 16:37:11;;;;;;;14.37;13.47;;;25.80;48.70;;;;;;4972293;28;20491;-72
2022/07/15 16:39:38;;;;;;;13.27;12.67;;;25.80;48.80;;;;;;4972581;28;20459;-72
2022/07/15 16:42:06;;;;;;;14.73;13.80;;;25.80;48.40;;;;;;4973029;28;20458;-72
2022/07/15 16:44:33;;;;;;;12.80;12.20;;;25.70;48.50;;;;;;4972441;28;20459;-72
2022/07/15 16:47:00;;;;;;;14.40;13.03;;;25.60;48.20;;;;;;4972384;28;20451;-72
2022/07/15 16:49:28;;;;;;;13.20;12.60;;;25.50;48.60;;;;;;4972081;28;20456;-72
2022/07/15 16:51:58;;;;;;;13.80;13.00;;;25.50;48.90;;;;;;4972209;28;20836;-72
2022/07/15 16:54:25;;;;;;;13.40;12.70;;;25.50;49.10;;;;;;4972161;28;20456;-72
2022/07/15 16:56:51;;;;;;;13.70;13.10;;;25.50;49.10;;;;;;4972228;28;20833;-73
2022/07/15 16:59:20;;;;;;;13.70;12.90;;;25.50;49.30;;;;;;4972118;28;20458;-71
2022/07/15 17:01:47;;;;;;;13.50;12.80;;;25.50;49.00;;;;;;4971972;28;20474;-71
2022/07/15 17:04:13;;;;;;;13.40;12.67;;;25.30;48.90;;;;;;4972063;28;20463;-74
2022/07/15 17:06:42;;;;;;;13.33;12.63;;;25.30;49.50;;;;;;4971934;28;20463;-72
2022/07/15 17:09:08;;;;;;;13.77;12.93;;;25.30;49.80;;;;;;4971907;28;20459;-72
2022/07/15 17:11:36;;;;;;;13.80;12.97;;;25.30;49.80;;;;;;4971739;28;20452;-73
2022/07/15 17:14:03;;;;;;;13.03;12.20;;;25.30;49.70;;;;;;4971684;28;20482;-72
2022/07/15 17:16:32;;;;;;;13.87;13.20;;;25.20;49.70;;;;;;4989939;28;20495;-73
2022/07/15 17:18:59;;;;;;;13.60;13.00;;;25.20;49.90;;;;;;4991081;28;20494;-72
2022/07/15 17:21:26;;;;;;;13.70;13.10;;;25.10;50.00;;;;;;5001100;28;20446;-72
2022/07/15 17:23:52;;;;;;;13.13;12.37;;;25.00;50.10;;;;;;5010981;28;20450;-72
2022/07/15 17:26:19;;;;;;;14.30;13.47;;;25.00;50.60;;;;;;5010996;28;20461;-73
2022/07/15 17:28:46;;;;;;;13.73;12.93;;;24.90;50.80;;;;;;5010596;28;20449;-73
2022/07/15 17:31:13;;;;;;;13.93;13.03;;;25.00;50.90;;;;;;5010612;28;20453;-73
2022/07/15 17:33:41;;;;;;;12.57;11.80;;;24.90;50.70;;;;;;5010597;28;20512;-72
2022/07/15 17:36:08;;;;;;;12.47;11.90;;;24.80;50.50;;;;;;5010564;28;20460;-72
2022/07/15 17:38:35;;;;;;;13.60;12.93;;;24.60;50.90;;;;;;5010743;28;21003;-71